createdAt,value
2018-04-10T00:00:41.492Z,10.50
2018-04-10T00:03:51.460Z,10.60
2018-04-10T00:07:02.423Z,10.40
2018-04-10T00:10:12.835Z,10.30
2018-04-10T00:13:22.894Z,10.40
2018-04-10T00:16:32.779Z,10.30
2018-04-10T00:19:43.940Z,10.20
2018-04-10T00:22:54.830Z,10.00
2018-04-10T00:26:05.059Z,10.00
2018-04-10T00:29:14.952Z,9.90
2018-04-10T00:32:26.420Z,9.80
2018-04-10T00:35:36.264Z,9.80
2018-04-10T00:38:46.652Z,9.80
2018-04-10T00:41:56.485Z,9.70
2018-04-10T00:45:06.321Z,9.60
2018-04-10T00:48:16.291Z,9.30
2018-04-10T00:51:26.198Z,9.40
2018-04-10T00:54:36.142Z,9.50
2018-04-10T00:57:46.167Z,9.40
2018-04-10T01:00:56.137Z,9.40
2018-04-10T01:04:06.102Z,9.30
2018-04-10T01:07:16.299Z,9.20
2018-04-10T01:10:26.278Z,9.10
2018-04-10T01:13:36.179Z,9.00
2018-04-10T01:16:46.185Z,9.00
2018-04-10T01:19:56.833Z,8.70
2018-04-10T01:23:06.930Z,8.80
2018-04-10T01:26:16.865Z,8.90
2018-04-10T01:29:26.958Z,8.90
2018-04-10T01:32:37.814Z,8.90
2018-04-10T01:35:48.707Z,8.90
2018-04-10T01:38:59.375Z,8.90
2018-04-10T01:42:09.873Z,9.00
2018-04-10T01:45:19.681Z,8.70
2018-04-10T01:48:29.789Z,8.70
2018-04-10T01:51:39.775Z,8.60
2018-04-10T01:54:50.050Z,8.50
2018-04-10T01:57:59.827Z,8.60
2018-04-10T02:01:10.134Z,8.60
2018-04-10T02:04:20.050Z,8.30
2018-04-10T02:07:30.327Z,8.20
2018-04-10T02:10:40.177Z,8.30
2018-04-10T02:13:51.219Z,8.20
2018-04-10T02:17:01.892Z,8.20
2018-04-10T02:20:12.652Z,8.20
2018-04-10T02:23:23.098Z,8.20
2018-04-10T02:26:34.307Z,7.90
2018-04-10T02:29:44.347Z,7.90
2018-04-10T02:32:54.390Z,7.90
2018-04-10T02:36:03.912Z,8.00
2018-04-10T02:39:14.605Z,8.10
2018-04-10T02:42:24.973Z,8.10
2018-04-10T02:45:38.073Z,8.10
2018-04-10T02:48:49.244Z,8.00
2018-04-10T02:51:59.826Z,8.00
2018-04-10T02:55:09.683Z,8.10
2018-04-10T02:58:20.164Z,8.30
2018-04-10T03:01:30.511Z,8.20
2018-04-10T03:04:40.664Z,8.20
2018-04-10T03:07:50.513Z,8.30
2018-04-10T03:11:00.627Z,8.30
2018-04-10T03:14:12.084Z,8.10
2018-04-10T03:17:22.445Z,8.10
2018-04-10T03:20:32.301Z,8.20
2018-04-10T03:23:43.006Z,8.20
2018-04-10T03:26:53.129Z,8.20
2018-04-10T03:30:03.299Z,8.20
2018-04-10T03:33:13.098Z,8.30
2018-04-10T03:36:23.722Z,8.20
2018-04-10T03:39:33.494Z,8.20
2018-04-10T03:42:44.036Z,8.10
2018-04-10T03:45:54.119Z,8.20
2018-04-10T03:49:04.612Z,8.20
2018-04-10T03:52:15.602Z,8.30
2018-04-10T03:55:26.328Z,8.30
2018-04-10T03:58:37.002Z,8.40
2018-04-10T04:01:46.911Z,8.50
2018-04-10T04:04:57.823Z,8.40
2018-04-10T04:08:08.168Z,8.50
2018-04-10T04:11:18.977Z,8.50
2018-04-10T04:14:29.577Z,8.40
2018-04-10T04:17:39.292Z,8.40
2018-04-10T04:21:03.111Z,8.40
2018-04-10T04:24:13.487Z,8.40
2018-04-10T04:27:23.660Z,8.50
2018-04-10T04:30:33.417Z,8.50
2018-04-10T04:33:43.630Z,8.50
2018-04-10T04:36:54.309Z,8.50
2018-04-10T04:40:04.255Z,8.50
2018-04-10T04:43:13.993Z,8.50
2018-04-10T04:46:24.396Z,8.50
2018-04-10T04:49:34.698Z,8.60
2018-04-10T04:52:44.687Z,8.50
2018-04-10T04:55:55.381Z,8.60
2018-04-10T04:59:06.704Z,8.60
2018-04-10T05:02:16.497Z,8.60
2018-04-10T05:05:26.771Z,8.60
2018-04-10T05:08:37.381Z,8.70
2018-04-10T05:11:47.664Z,8.70
2018-04-10T05:14:58.390Z,8.70
2018-04-10T05:18:08.539Z,8.70
2018-04-10T05:21:19.139Z,8.70
2018-04-10T05:24:29.349Z,8.70
2018-04-10T05:27:39.562Z,8.70
2018-04-10T05:30:49.669Z,8.70
2018-04-10T05:34:00.247Z,8.80
2018-04-10T05:37:10.596Z,8.90
2018-04-10T05:40:20.558Z,9.00
2018-04-10T05:43:30.746Z,9.10
2018-04-10T05:46:40.740Z,9.30
2018-04-10T05:49:51.416Z,9.30
2018-04-10T05:53:01.838Z,9.40
2018-04-10T05:56:11.644Z,9.60
2018-04-10T05:59:21.661Z,9.60
2018-04-10T06:02:32.274Z,9.80
2018-04-10T06:05:42.489Z,9.80
2018-04-10T06:08:52.576Z,9.90
2018-04-10T06:12:02.664Z,10.10
2018-04-10T06:15:13.460Z,10.20
2018-04-10T06:18:23.561Z,10.40
2018-04-10T06:21:33.751Z,10.50
2018-04-10T06:24:43.798Z,10.60
2018-04-10T06:27:54.490Z,10.80
2018-04-10T06:31:04.530Z,10.90
2018-04-10T06:34:14.495Z,11.00
2018-04-10T06:37:24.514Z,11.10
2018-04-10T06:40:36.053Z,11.40
2018-04-10T06:43:46.115Z,11.40
2018-04-10T06:46:55.982Z,11.50
2018-04-10T06:50:05.923Z,11.60
2018-04-10T06:53:16.273Z,11.70
2018-04-10T06:56:27.014Z,11.90
2018-04-10T06:59:37.923Z,12.10
2018-04-10T07:02:48.519Z,12.40
2018-04-10T07:05:58.930Z,12.40
2018-04-10T07:09:08.960Z,12.60
2018-04-10T07:12:20.069Z,13.00
2018-04-10T07:15:30.237Z,13.00
2018-04-10T07:18:40.653Z,13.20
2018-04-10T07:21:50.773Z,13.40
2018-04-10T07:25:01.051Z,13.70
2018-04-10T07:28:11.076Z,13.90
2018-04-10T07:31:21.276Z,14.00
2018-04-10T07:34:31.114Z,14.20
2018-04-10T07:37:40.980Z,14.40
2018-04-10T07:40:50.704Z,14.70
2018-04-10T07:44:01.023Z,14.80
2018-04-10T07:47:11.272Z,15.00
2018-04-10T07:50:21.686Z,15.20
2018-04-10T07:53:32.008Z,15.30
2018-04-10T07:56:42.659Z,15.50
2018-04-10T07:59:52.807Z,15.70
2018-04-10T08:03:03.518Z,16.20
2018-04-10T08:06:13.847Z,16.20
2018-04-10T08:09:23.654Z,16.50
2018-04-10T08:12:34.019Z,16.60
2018-04-10T08:15:44.732Z,16.90
2018-04-10T08:18:54.647Z,17.00
2018-04-10T08:22:04.826Z,17.20
2018-04-10T08:25:14.634Z,17.40
2018-04-10T08:28:24.687Z,17.50
2018-04-10T08:31:35.618Z,17.80
2018-04-10T08:34:45.833Z,17.90
2018-04-10T08:37:55.847Z,18.00
2018-04-10T08:41:06.615Z,18.10
2018-04-10T08:44:16.672Z,18.20
2018-04-10T08:47:26.800Z,18.40
2018-04-10T08:50:36.604Z,18.50
2018-04-10T08:53:48.213Z,18.90
2018-04-10T08:56:58.574Z,18.90
2018-04-10T09:00:08.930Z,19.00
2018-04-10T09:03:19.004Z,19.10
2018-04-10T09:06:28.885Z,19.30
2018-04-10T09:09:38.766Z,19.40
2018-04-10T09:12:48.794Z,19.60
2018-04-10T09:16:00.479Z,19.80
2018-04-10T09:19:10.533Z,19.80
2018-04-10T09:22:22.038Z,19.90
2018-04-10T09:25:32.518Z,19.90
2018-04-10T09:28:42.811Z,20.00
2018-04-10T09:31:53.094Z,20.10
2018-04-10T09:35:03.262Z,20.20
2018-04-10T09:38:13.450Z,20.20
2018-04-10T09:41:24.271Z,20.50
2018-04-10T09:44:34.365Z,20.40
2018-04-10T09:47:44.103Z,20.50
2018-04-10T09:50:53.979Z,20.70
2018-04-10T09:54:03.787Z,20.70
2018-04-10T09:57:13.709Z,20.80
2018-04-10T10:00:44.111Z,20.80
2018-04-10T10:03:54.886Z,20.80
2018-04-10T10:07:05.365Z,20.90
2018-04-10T10:10:16.020Z,21.10
2018-04-10T10:13:26.797Z,21.10
2018-04-10T10:16:36.973Z,21.10
2018-04-10T10:19:47.040Z,21.10
2018-04-10T10:22:58.127Z,21.10
2018-04-10T10:26:08.444Z,21.10
2018-04-10T10:29:19.168Z,21.40
2018-04-10T10:32:29.493Z,21.40
2018-04-10T10:35:39.728Z,21.40
2018-04-10T10:38:49.819Z,21.40
2018-04-10T10:41:59.755Z,21.40
2018-04-10T10:45:09.795Z,21.50
2018-04-10T10:48:20.714Z,21.30
2018-04-10T10:51:31.064Z,21.60
2018-04-10T10:54:41.703Z,21.50
2018-04-10T10:57:51.801Z,21.50
2018-04-10T11:01:01.682Z,21.70
2018-04-10T11:04:12.614Z,21.80
2018-04-10T11:07:26.450Z,22.00
2018-04-10T11:10:36.398Z,21.80
2018-04-10T11:13:47.098Z,21.80
2018-04-10T11:16:56.435Z,22.00
2018-04-10T11:20:06.359Z,22.00
2018-04-10T11:23:16.462Z,22.00
2018-04-10T11:26:26.166Z,21.80
2018-04-10T11:29:36.084Z,21.80
2018-04-10T11:32:46.283Z,21.90
2018-04-10T11:35:56.381Z,22.10
2018-04-10T11:39:06.702Z,22.10
2018-04-10T11:42:16.544Z,22.20
2018-04-10T11:45:26.077Z,22.10
2018-04-10T11:48:36.229Z,22.00
2018-04-10T11:51:46.752Z,21.60
2018-04-10T11:54:56.592Z,21.60
2018-04-10T11:58:07.691Z,21.50
2018-04-10T12:01:17.762Z,21.50
2018-04-10T12:04:28.376Z,21.50
2018-04-10T12:07:38.216Z,21.40
2018-04-10T12:10:48.096Z,21.30
2018-04-10T12:13:58.386Z,21.20
2018-04-10T12:17:08.476Z,21.40
2018-04-10T12:20:18.915Z,21.40
2018-04-10T12:23:28.807Z,21.40
2018-04-10T12:26:38.688Z,21.40
2018-04-10T12:29:48.582Z,21.30
2018-04-10T12:32:58.801Z,21.30
2018-04-10T12:36:08.919Z,21.30
2018-04-10T12:39:19.322Z,21.30
2018-04-10T12:42:29.099Z,21.20
2018-04-10T12:45:38.901Z,21.30
2018-04-10T12:48:48.826Z,21.40
2018-04-10T12:51:58.848Z,21.40
2018-04-10T12:55:08.907Z,21.60
2018-04-10T12:58:18.963Z,21.60
2018-04-10T13:01:29.508Z,21.70
2018-04-10T13:04:40.009Z,22.00
2018-04-10T13:07:51.313Z,21.90
2018-04-10T13:11:01.280Z,21.90
2018-04-10T13:14:11.490Z,21.80
2018-04-10T13:17:21.402Z,21.40
2018-04-10T13:20:31.258Z,21.10
2018-04-10T13:23:41.344Z,21.00
2018-04-10T13:26:51.164Z,21.10
2018-04-10T13:30:01.520Z,21.30
2018-04-10T13:33:12.462Z,21.50
2018-04-10T13:36:22.352Z,21.60
2018-04-10T13:39:32.041Z,21.60
2018-04-10T13:42:41.986Z,21.20
2018-04-10T13:45:52.677Z,20.90
2018-04-10T13:49:02.520Z,21.00
2018-04-10T13:52:12.619Z,21.20
2018-04-10T13:55:22.562Z,21.40
2018-04-10T13:58:34.061Z,21.70
2018-04-10T14:01:44.156Z,21.70
2018-04-10T14:04:54.516Z,21.70
2018-04-10T14:08:04.527Z,21.70
2018-04-10T14:11:14.313Z,21.90
2018-04-10T14:14:24.483Z,22.10
2018-04-10T14:17:35.374Z,21.90
2018-04-10T14:20:45.624Z,21.90
2018-04-10T14:23:55.746Z,21.80
2018-04-10T14:27:05.589Z,21.90
2018-04-10T14:30:15.897Z,21.90
2018-04-10T14:33:25.699Z,21.80
2018-04-10T14:36:36.388Z,22.00
2018-04-10T14:39:46.534Z,22.00
2018-04-10T14:42:56.578Z,22.00
2018-04-10T14:46:06.237Z,22.30
2018-04-10T14:49:17.079Z,22.10
2018-04-10T14:52:26.694Z,22.10
2018-04-10T14:55:36.366Z,21.90
2018-04-10T14:58:46.272Z,21.60
2018-04-10T15:01:56.423Z,21.60
2018-04-10T15:05:06.089Z,21.60
2018-04-10T15:08:16.537Z,21.30
2018-04-10T15:11:27.441Z,21.10
2018-04-10T15:14:38.096Z,21.00
2018-04-10T15:17:48.896Z,20.80
2018-04-10T15:20:59.316Z,20.80
2018-04-10T15:24:09.139Z,20.90
2018-04-10T15:27:19.425Z,20.80
2018-04-10T15:30:29.431Z,20.70
2018-04-10T15:33:39.248Z,20.60
2018-04-10T15:36:50.210Z,20.70
2018-04-10T15:40:00.805Z,20.80
2018-04-10T15:43:11.616Z,21.00
2018-04-10T15:46:22.810Z,21.20
2018-04-10T15:49:33.167Z,21.20
2018-04-10T15:52:43.367Z,21.30
2018-04-10T15:55:53.956Z,21.10
2018-04-10T15:59:04.111Z,21.00
2018-04-10T16:02:14.105Z,20.90
2018-04-10T16:05:24.116Z,20.80
2018-04-10T16:08:34.068Z,20.80
2018-04-10T16:11:44.321Z,20.70
2018-04-10T16:14:55.539Z,20.50
2018-04-10T16:18:06.046Z,20.40
2018-04-10T16:21:16.793Z,20.20
2018-04-10T16:24:27.148Z,20.10
2018-04-10T16:27:37.244Z,19.80
2018-04-10T16:30:47.135Z,19.80
2018-04-10T16:34:00.191Z,19.50
2018-04-10T16:37:10.221Z,19.50
2018-04-10T16:40:23.482Z,19.40
2018-04-10T16:43:34.723Z,19.30
2018-04-10T16:46:46.303Z,19.30
2018-04-10T16:49:58.240Z,19.30
2018-04-10T16:53:10.608Z,19.20
2018-04-10T16:56:20.601Z,19.10
2018-04-10T16:59:32.146Z,18.90
2018-04-10T17:02:42.426Z,18.90
2018-04-10T17:05:53.250Z,18.70
2018-04-10T17:09:03.097Z,18.70
2018-04-10T17:12:13.686Z,18.50
2018-04-10T17:15:24.108Z,18.50
2018-04-10T17:18:34.045Z,18.40
2018-04-10T17:21:43.874Z,18.30
2018-04-10T17:24:54.014Z,18.20
2018-04-10T17:28:04.191Z,18.10
2018-04-10T17:31:14.793Z,18.10
2018-04-10T17:34:24.752Z,17.90
2018-04-10T17:37:34.287Z,17.90
2018-04-10T17:40:44.709Z,17.80
2018-04-10T17:43:54.923Z,17.70
2018-04-10T17:47:05.148Z,17.60
2018-04-10T17:50:17.392Z,17.50
2018-04-10T17:53:27.810Z,17.40
2018-04-10T17:56:38.313Z,17.30
2018-04-10T17:59:48.904Z,17.20
2018-04-10T18:02:58.921Z,17.10
2018-04-10T18:06:08.834Z,17.00
2018-04-10T18:09:18.787Z,17.00
2018-04-10T18:12:29.456Z,16.80
2018-04-10T18:15:40.084Z,16.80
2018-04-10T18:18:50.379Z,16.70
2018-04-10T18:22:00.980Z,16.60
2018-04-10T19:09:35.299Z,16.50
2018-04-10T19:12:45.268Z,15.80
2018-04-10T19:15:55.745Z,15.70
2018-04-10T19:19:06.059Z,15.70
2018-04-10T19:22:15.982Z,15.60
2018-04-10T19:25:26.784Z,15.60
2018-04-10T19:28:36.493Z,15.50
2018-04-10T19:31:46.476Z,15.50
2018-04-10T19:34:57.185Z,15.40
2018-04-10T19:38:08.094Z,15.30
2018-04-10T19:41:18.796Z,15.30
2018-04-10T19:44:29.798Z,15.20
2018-04-10T19:47:40.016Z,15.20
2018-04-10T19:50:51.621Z,15.10
2018-04-10T19:54:02.099Z,15.10
2018-04-10T19:57:11.989Z,15.00
2018-04-10T20:00:22.308Z,15.00
2018-04-10T20:03:33.713Z,14.90
2018-04-10T20:06:44.513Z,14.80
2018-04-10T20:09:54.933Z,14.90
2018-04-10T20:13:04.998Z,14.80
2018-04-10T20:16:15.679Z,14.60
2018-04-10T20:19:25.795Z,14.60
2018-04-10T20:22:35.590Z,14.60
2018-04-10T20:25:45.979Z,14.50
2018-04-10T20:28:56.218Z,14.40
2018-04-10T20:32:06.026Z,14.30
2018-04-10T20:35:15.970Z,14.30
2018-04-10T20:38:27.245Z,14.20
2018-04-10T20:41:37.722Z,14.20
2018-04-10T20:44:47.844Z,14.10
2018-04-10T20:47:57.819Z,14.10
2018-04-10T20:51:08.593Z,14.10
2018-04-10T20:54:18.476Z,14.10
2018-04-10T20:57:28.531Z,14.00
2018-04-10T21:00:38.870Z,14.10
2018-04-10T21:03:48.852Z,13.90
2018-04-10T21:06:59.084Z,13.90
2018-04-10T21:10:10.099Z,13.80
2018-04-10T21:13:20.238Z,13.80
2018-04-10T21:16:30.551Z,13.80
2018-04-10T21:19:40.868Z,13.80
2018-04-10T21:22:50.887Z,13.80
2018-04-10T21:26:01.008Z,13.60
2018-04-10T21:29:11.488Z,13.60
2018-04-10T21:32:21.582Z,13.40
2018-04-10T21:35:31.523Z,13.40
2018-04-10T21:38:42.452Z,13.30
2018-04-10T21:41:52.651Z,13.30
2018-04-10T21:45:03.393Z,13.30
2018-04-10T21:48:13.760Z,13.30
2018-04-10T21:51:24.404Z,13.20
2018-04-10T21:54:34.769Z,13.20
2018-04-10T21:57:45.720Z,13.20
2018-04-10T22:00:55.916Z,13.20
2018-04-10T22:04:06.005Z,13.20
2018-04-10T22:07:16.699Z,13.10
2018-04-10T22:10:27.028Z,13.10
2018-04-10T22:13:37.000Z,13.20
2018-04-10T22:16:47.071Z,13.10
2018-04-10T22:19:57.208Z,13.10
2018-04-10T22:23:07.210Z,13.10
2018-04-10T22:26:17.250Z,13.00
2018-04-10T22:29:28.677Z,12.90
2018-04-10T22:32:39.843Z,12.80
2018-04-10T22:35:49.773Z,12.80
2018-04-10T22:38:59.788Z,12.80
2018-04-10T22:42:09.798Z,12.70
2018-04-10T22:45:19.944Z,12.80
2018-04-10T22:48:30.680Z,12.70
2018-04-10T22:51:40.667Z,12.70
2018-04-10T22:54:51.022Z,12.80
2018-04-10T22:58:01.577Z,12.80
2018-04-10T23:01:12.165Z,12.80
2018-04-10T23:04:22.892Z,12.70
2018-04-10T23:07:33.297Z,12.70
2018-04-10T23:10:43.309Z,12.70
2018-04-10T23:13:53.664Z,12.70
2018-04-10T23:17:04.346Z,12.70
2018-04-10T23:20:15.321Z,12.70
2018-04-10T23:23:25.976Z,12.70
2018-04-10T23:26:35.905Z,12.70
2018-04-10T23:29:46.094Z,12.60
2018-04-10T23:32:56.185Z,12.60
2018-04-10T23:36:06.592Z,12.50
2018-04-10T23:39:17.498Z,12.40
2018-04-10T23:42:28.202Z,12.30
2018-04-10T23:45:38.260Z,12.30
2018-04-10T23:48:48.300Z,12.30
2018-04-10T23:51:58.275Z,12.20
2018-04-10T23:55:08.291Z,12.20
2018-04-10T23:58:19.037Z,12.10
